« 2015年6月 | トップページ | 2015年8月 »

2015年7月

2015/07/29

定点 富山空港 2015/7/29 wed

RJNT 290100Z 34006KT 280V030 9999 FEW030 31/23 Q1008

20150729_rjnt_00ja63an

ANA313 RJTT-RJNT JA63AN B737-881

20150729_rjnt_01b6041

CSN613 ZYTL-RJNT B-6041 A319-132

20150729_rjnt_02ja139t

20150729_rjnt_03ja139t

JA139T AW139 富山県警察

20150729_rjnt_04ja63an

20150729_rjnt_05ja63an

ANA1181 RJNT-RJCC JA63AN B737-881

RJNT 290300Z 28007KT 240V330 9999 FEW025 BKN030 31/24 Q1007

20150729_rjnt_06b6041

20150729_rjnt_07b6041

CSN614 RJNT-ZYTL B-6041 A319-132

20150729_rjnt_08ja6164

なんか、へんちょこなヘリが直上通過

20150729_rjnt_09ja6164

JA6184 Kaman K-1200 K-Max AHS

20150729_rjnt_10ja6193

JA6193 B206B AAK

20150729_rjnt_11ja71an

20150729_rjnt_12ja71an

ANA315 RJTT-RJNT JA71AN B737-881

20150729_rjnt_13b5185

20150729_rjnt_14b5185

CSH825 ZSPD-RJNT B-5185 B737-8Q9

20150729_rjnt_15ja71an

20150729_rjnt_16ja71an

ANA316 RJNT-RJTT JA71AN B737-881

20150729_rjnt_17b5185

20150729_rjnt_18b5185

CSH826 RJNT-ZSPD B-5185 B737-8Q8

RJNT 290500Z 28009KT 240V320 9999 FEW025 SCT030 32/24 Q1007

続きを読む "定点 富山空港 2015/7/29 wed"

| | コメント (0) | トラックバック (0)

2015/07/26

イーグル参上:射水市合併10周年記念富山新港新湊祭り 富山新港 2015/7/26 sun

今日、これが来た。射水に!!!

20150726_shinko_00f15

新湊市と周辺4町村が合併して射水市が誕生して、10年。いつもの夏まつりの新湊まつりに働く車とF15が飛来。

RJNT 260000Z 17004KT 100V240 CAVOK 33/21 Q1011

20150726_shinko_01kuruma

富山県では射水市消防本部に所属する支援車。

20150726_shinko_02kuruma

人気ははしご車

20150726_shinko_03kuruma

自衛隊富山地方協力本部から73型トラック

20150726_shinko_04kuruma

こんな車も展示・・

20150726_shinko_05kuruma

救急車両も人気

20150726_shinko_06kuruma

こんな車も・・・

20150726_shinko_07kaiomaru

本年10月に開催さる全国豊な海づくり大会は、射水市が会場。天皇陛下が行幸される。

20150726_shinko_08kaiomaru

射水市のゆるきゃらは、ムズムズくん

20150726_shinko_09kaiomaru

「世界で最も美しい湾クラブ」加盟記念モニュメント

20150726_shinko_10ep3r

ブーン P3かな? 上空を捜索すると、米海軍の怪しいEP-3でした。

20150726_shinko_11air

場所を移動して、小生だけのポイントへ

20150726_shinko_12f15x2

ダイナの富山アプローチを待ってから、進入してきました

20150726_shinko_13f15x2

32-8820 / 52-8848 F-15J 303SQ E01

20150726_shinko_14f15x2

事前飛行と同じ高~いいんです。

20150726_shinko_15f15x2

今度は青組の千歳行き出発を待って、2パス目はダーティ

RJNT 260300Z 29010KT 250V320 9999 FEW040 34/21 Q1011

20150726_shinko_16f15x2

上空を飛ぶ、鳶みたい・・

20150726_shinko_17f15x2

素直に帆船と一緒に撮ればよかったかなぁ・・

20150726_shinko_18f15x2

それでも、小さい 周辺には火力発電所や高圧送電線があるからね

20150726_shinko_19f15x2

日曜なのにお疲れさま~

20150726_shinko_20oohashi

離れた場所から、新湊大橋

20150726_rjnt_21ja61an

315をメディク周辺でゲット

20150726_rjnt_22ja61an

ANA315 RJTT-RJNT JA61AN B737-881

RJNT 260400Z 29010KT 250V330 9999 FEW040 35/20 Q1010

20150726_rjnt_23ja61an

河原にチョコットよって

20150726_rjnt_24ja61an

ANA316 RJNT-RJTT JA61AN B737-881

20150726_rjnt_25ja61an

昼食を摂って、しばらくガマンしていたのですが、日陰に居ても熱すぎ!自宅で「そこまで言っていいんかい」にミッション変更


続きを読む "イーグル参上:射水市合併10周年記念富山新港新湊祭り 富山新港 2015/7/26 sun"

| | コメント (0) | トラックバック (0)

2015/07/24

定点 富山空港 2015/7/23 thu

梅雨明け宣言があったと思ったら、翌日からもどり梅雨。今日は、来客は来ず雨の橋を拝んで、河原へ。

20150723_rjnt_00_shinko

RJNT 230104Z VRB01KT 5000 -SHRA BR FEW001 SCT004 BKN010 24/24 Q1011 RMK 1ST001 4ST004 5CU010 A2987

20150723_rjnt_01ja77an

ひゃー、間に合わない。で、途中の堤防で、見上げました。

20150723_rjnt_02ja77an

ANA313 RJTT-RJNT JA77AN B737-881

20150723_rjnt_03ja77an

20150723_rjnt_04ja77an

ANA1181 RJNT-RJCC JA77AN B737-881

RJNT 230300Z 24005KT 200V290 9999 -SHRA FEW002 SCT005 BKN030 25/24 Q1010

20150723_rjnt_05ja80an

20150723_rjnt_06ja80an

20150723_rjnt_07ja80an_2

ANA315 RJTT-RJNT JA80AN B737-881

20150723_rjnt_08b18617

今日は、遅れで飛来

20150723_rjnt_09b18617

CAL170 RCTP-RJNT B-18617 B737-809

RJNT 230400Z 22005KT 9999 -SHRA FEW001 BKN030 BKN040 26/24 Q1010

20150723_rjnt_10ja80an

久しぶりにエンドへ

20150723_rjnt_11ja80an

20150723_rjnt_12ja80an

ANA316 RJNT-RJTT JA80AN B737-881

20150723_rjnt_13b18617

こちらは、RW20デパーチャー

20150723_rjnt_14b18617

20150723_rjnt_15b18617

20150723_rjnt_16b18617

20150723_rjnt_17b18617

CAL171 RJNT-RCTP B-18617 B737-809

RJNT 230500Z 12003KT 060V180 7000 -SHRA FEW002 SCT005 BKN030 25/24 Q1010

続きを読む "定点 富山空港 2015/7/23 thu"

| | コメント (0) | トラックバック (0)

2015/07/23

趣味的航空路誌改訂情報 2015/7/23 thu

趣味的航空路誌改訂情報 2015/7/23 thu
7月23日の航空路誌改訂から、めぼしいものをピックアップ。これはあくまでも小生が趣味的にメモとして記録しているものです。

○静岡空港における運用時間の変更等
2230-1130(UTC) → 2230-1300(UTC)

○RNAV 経路の改正
Revision of RNAV routes: Y37, Y808, Y820

○位置通報点の改正
Revision of reporting point;
COLOR

○函館空港における飛行場障害物の設置

○広島空港におけるスポット9,10 番の移設及びエプロンの拡幅等

○岩国飛行場における飛行場図の改

○岩国飛行場における飛行の方式に係る情報の変更
RNAV(GPS) RWY02

○小松飛行場における標準計器到着方式の廃止
KOMATSU ARRIVAL → Abolishment

○松本空港における北エプロンの拡張等

○松山空港における飛行場図の記載事項の変更

○三沢飛行場における飛行の方式に係る情報の変更
ENKAI TWO DEPARTURE
KOSUI TWO DEPARTURE

○那覇空港におけるスポット番号表示灯の改正

○成田国際空港におけるRWY16R IM の改正

○成田国際空港における計器進入方式の改正
ILS Z RWY16R(CAT Ⅱ & Ⅲ )
ILS Y or LOC RWY16R(CAT Ⅱ & Ⅲ )

○成田国際空港における駐機位置指示灯の改正

○大阪国際空港における滑走路勾配の更新及び局地交通諸規則の改正等

○大島空港におけるLOC-DME の記載事項の変更

○横田飛行場における飛行の方式に係る情報の変更
BREEE TWO DEPARTURE
TIMAP TWO DEPARTURE

▽紋別空港における飛行の方式の一時変更について 
2015.5.28 - 2016.1.31

▽福岡空港における飛行の方式の一時変更について
2015.5.28 - 2015.10.25

□多良間VOR/DME(RME)の運用休止
多良間VOR/DME(RME) 運用休止 2015.5.28 - 2015.9.16
代替に仮設仲筋VOR/DME(NAE)が運用される

□青森VOR/DME(MRE)の運用休止
青森VOR/DME(MRE) 運用休止 2015.8.20 - 2015.11.11
代替に仮設大谷VOR/DME(OTE)が運用される
秋田空港における標準計器出発方式の一時変更
HINAI ONE DEPARTURE
青森空港における標準計器出発方式の一時設定
TIKYU ONE DEPARTURE
青森空港における標準計器出発方式等の一時変更
IWAKI FIVE DEPARTURE
YUWA TRANSITION
MYUDO TRANSITION
TASHIRO THREE DEPARTURE
AOMORI REVERSAL ONE DEPARTURE
青森空港における標準計器到着方式の一時設定
TOHWA ARRIVAL
MELOS NORTH ARRIVAL
MELOS SOUTH ARRIVAL
青森空港における計器進入方式の一時変更
ILS or LOC RWY24(CATⅡ & CATⅢ)
VOR Z RWY24
VOR Z RWY06

□稚内 ILS-LOC08(IWK) の運用休止及び代替措置について
稚内ILS-LOC08(IWK)運用休止 2015.6.25 - 2015.10.14
代替LOCの一時運用
稚内空港における計器進入方式の一時変更
ILS or LOC RWY08

□広島 ILS-LOC10(IHG) の運用休止及び代替措置について
広島ILS-LOC10(IHG) 追って通知するまで。
代替 広島可搬型LOC10、広島GP10、広島DME10 が一時運用される

□大分 ILS(LOC,GP,DME)(ITF) の運用休止及び代替措置について
大分ILS(LOC,GP,DME)(ITF)運用休止 2015.8.20 - 2015.12.9
代替LOC及びLOC-DMEの一時運用
大分空港における計器進入方式の一時変更
LOC Y RWY01
LOC X RWY01

□能登 ILS(LOC,GP,DME)(INF) の運用休止及び代替措置について
能登ILS(LOC,GP,DME)(INF)運用休止 2015.8.20 - 2015.11.11
代替LOC及びLOC-DMEの一時運用
能登空港における標準計器到着方式の一時変更
GORYU ARRIVAL
能登空港における計器進入方式の一時変更
LOC Z RWY25
LOC Y RWY25

□中標津 ILS-LOC08(INS) の運用休止及び代替措置について
中標津ILS-LOC08(INK)運用休止 2015.8.20 - 2015.12.9
代替LOCの一時運用
中標津空港における計器進入方式の一時変更
ILS or LOC Z RWY08
ILS or LOC Y RWY08

□浜松TACAN(LHT)の運用休止及び代替措置について
浜松TACAN(LHT)の運用休止 2015.8.20 - 2015.9.3
代替TACANの一時運用
浜松TACAN(ZZT)
浜松飛行場における標準計器出発方式の一時変更
SAGARA FOUR DEPARTURE
OSHIMA THREE DEPARTURE
KOWA FOUR DEPARTURE
ATSUMI FOUR DEPARTURE
HAMAMATSU REVERSAL TWO DEPARTURE
浜松飛行場における計器進入方式の一時変更
TACAN NR.1 RWY09
TACAN NR.2 RWY27
TACAN NR.3 RWY09
TACAN NR.4 RWY27
TACAN NR.5 RWY09
TACAN NR.6 RWY27

□大館VOR/DME(ODE)の運用休止
大館VOR/DME(MDE) 運用休止 2015.8.20 - 2015.11.11
代替に仮設鷹巣VOR/DME(TNE)が運用される
大館能代空港における標準計器出発方式の一時変更
ODATE REVERSAL ONE DEPARTURE
LAGOON TWO DEPARTURE
大館能代空港における標準計器到着方式の一時設定
MUKAI SOUTH ARRIVAL
大館能代空港における標準計器到着方式の一時変更
NOSSY SOUTH ARRIVAL
大館能代空港における計器進入方式の一時変更
ILS Z or LOC Z RWY11
ILS Y or LOC Y RWY11
VOR RWY11
RNAV(RNP) Z RWY29
RNAV(RNP) Y RWY29

●VOR・DME・NDB・マーカ廃止計画情報

平成27年度計画(案)
木更津VOR、美保VOR、大津VOR、信太VOR、淡路VOR、玖珂VOR、大分VOR、奄美VOR
秋田DME、東北DME、那須DME、佐倉DME、木更津DME、浜松DME、大津DME、信太DME、友DME、大分DME

平成28年度以降計画(案)
関宿VOR、横須賀VOR、鹿児島VOR、屋久島VOR、多良間VOR、与論VOR、南大東VOR

仮設予定
芝山VOR/DME(SBE) 薩南VOR/DME(SAE) 菊陽VOR/DME(KYE) 山口VOR/DME(YUE)

| | コメント (0) | トラックバック (0)

2015/07/20

定点 富山空港 2015/7/19 sun

富山新港での自衛艦「ひうち」の公開が台風の影響で中止になって、いつもの時間から河原詣です。

RJNT 190100Z 34004KT 270V030 9999 FEW030 BKN/// 28/21 Q1013

20150719_rjnt_00ja62an

ANA313 RJTT-RJNT JA62AN B737-881

20150719_rjnt_01ja6502

JA6502 AS350B3 AAK

ヘリパッドは朝日のこれだけ 防災も県警も風通しのため、少し開いてるだけ。

20150719_rjnt_02b18657

20150719_rjnt_03b18657

ぐぬぬ、かなり入ってから接地

20150719_rjnt_04b18657

CAL170 RCTP-RJNT B-18657 B737-8FH

20150719_rjnt_05ja62an

千歳航空祭は雨のようで・・ 残念

20150719_rjnt_06ja62an

ANA1181 RJNT-RJCC JA62AN B737-881

RJNT 190300Z 35007KT 320V030 9999 FEW030 SCT100 BKN/// 31/22 Q1013

20150719_rjnt_07ja359c

さて、防災センターでのドクターヘリキックオフに向かおうとしたところ・・・

20150719_rjnt_08ja359c

なにやら関係者らしき機体

20150719_rjnt_09ja359c

JA359C C525A CJ2+

RJNT 190500Z 01004KT 340V060 9999 -SHRA FEW020 FEW030CB BKN050 BKN100 28/24 Q1013

これにて、富山県ドクターへりキックオフ へ

20150719_rjnt_10ja359c

途中、与平さんがお帰りになるようなので、急いで河原へ ふぅー、ギリギリセーフ

20150719_rjnt_11ja359c

JA359C C525A CJ2+

また、来てくださいね。今度はもっと大きいカラフルな飛行機で。

RJNT 190700Z VRB01KT 9999 -SHRA FEW003 SCT040 BKN060 26/24 Q1013

防災センターへ戻り、キックオフが終了。帰り際にチョコット河原に寄り道。

20150719_rjnt_12ja77an

20150719_rjnt_13ja77an

20150719_rjnt_14ja77an

ANA317 RJTT-RJNT JA77AN B737-881

これにて、本日はRTB。

続きを読む "定点 富山空港 2015/7/19 sun"

| | コメント (0) | トラックバック (0)

2015/07/19

富山県ドクターヘリキックオフ 広域防災センター 2015/7/19 sun

6月17日から関係機関と運行訓練を行っている富山県ドクターへり。今日は、知事みずから出席の「富山県ドクターへりキックオフイベント」が富山県広域防災センターで行われた。

RJNT 190300Z 35007KT 320V030 9999 FEW030 SCT100 BKN/// 31/22 Q1013

20150719_dochel_00center

○○の陣でよく来るのだが、消防車が一斉に並んでいるのは、初めて見た。

20150719_dochel_01panel

四季彩館前でパネル展示

20150719_dochel_02panel

子供向けスタンプラリーもやってます。

20150719_dochel_03ja02kg

グランドは、スターを待っている。

20150719_dochel_04ja02kg

13時過ぎに県立中央病院を飛び立ったアグスタがやってきた。

20150719_dochel_05ja02kg

慎重に鉄板の位置を見極めて・・・

20150719_dochel_06ja02kg

ランディング

20150719_dochel_07chiji

搭乗したのは・・・ 富山県知事

20150719_dochel_08chiji

式展会場に歩いて移動

20150719_dochel_09chiji

壇上でドクターへり導入のいきさつ等をお話

20150719_dochel_10ja02kg

ボクも乗りたいナァ と、きときとト君

20150719_dochel_11ja02kg

JA02KG A109E KKG

20150719_dochel_12chiji

スタッフ紹介と来賓紹介 なんと、鈴与会長の与平さんも臨席。

20150719_dochel_13ja02kg

さらさらーと式展は終わって、実機の内覧会

20150719_dochel_14ja02kg

実はエコーが南から近づいていて・・・ 雨が・・

20150719_dochel_15ja02kg

県知事に説明する鹿児島国際航空の榎田操縦士

20150719_dochel_16ja02kg

強いシャワーが掛かったので、説明者も見学者も屋根の下に一時退避

RJNT 190500Z 01004KT 340V060 9999 -SHRA FEW020 FEW030CB BKN050 BKN100 28/24 Q1013

20150719_dochel_17dochel

防災センター入り口には、ドクターヘリのバルーン

20150719_dochel_18kitokitokun

おいが、「きときと君」で、ごわす。 あれぇ、薩摩弁だがや 

20150719_dochel_19kagoshima

榎田さんのパッチは、鹿児島県ドクターへり

20150719_dochel_20ja02kg

操縦席もさわり、いやいや見放題

20150719_dochel_21dochel

研修医の皆さんと搬入デモ

20150719_dochel_22dochel

医療スタッフは、富山県ドクターへりのパッチをしていた。

20150719_dochel_23ja02kg

展示時間が結構あるので、ボチボチ話しながら、スタッフさんたちとあること無いこと、聞いて過ごします。

20150719_dochel_24ja02kg

16時を廻って帰還です。

20150719_dochel_25ja02kg

エンジンスタートして、チェック中

20150719_dochel_26ja02kg

パイバイ!

20150719_dochel_27ja02kg

フワッと離陸したら・・

20150719_dochel_28ja02kg

上昇しながら眼の前を・・

20150719_dochel_29ja02kg

加速していきます。

20150719_dochel_30ja02kg

言ってみるもんですねぇ・・・ 転換してパスしてくれそうです。

20150719_dochel_31ja02kg

これからの活躍を期待しています。

20150719_dochel_32ja02kg

基地の県立中央病院へ戻っていった。

ほんとのところは、あまり活躍しないのが、いいのだけど。8月からの本格運用を見守っていきたい。

##### whitewing681 さんの動画 #####

#####

| | コメント (0) | トラックバック (0)

定点 富山空港 2015/7/18 sat

金沢港からの帰路、ちょっと河原に寄り道。

RJNT 180600Z 27010KT 9999 FEW010 BKN050 BKN070 24/21 Q1008

20150718_rjnt_00ja80an

20150718_rjnt_01ja80an

ANA318 RJNT-RJTT JA80AN B737-881

RJNT 180700Z 27009KT 9999 FEW010 SCT050 BKN070 24/21 Q1009

20150718_rjnt_02ja9690

山のへりがお帰りで、整備中

JA9690 AS332L AAK
JA02KG A109E KKG

20150718_rjnt_03ja62an

20150718_rjnt_04ja62an

20150718_rjnt_05ja62an

ANA317 RJTT-RJNT JA62AN B737-881

続きを読む "定点 富山空港 2015/7/18 sat"

| | コメント (0) | トラックバック (0)

2015/07/18

港フェスタ金沢2015 金沢港 2015/7/18 sat

自転車操業の台風11号が熱帯低気圧に変った辺り、金沢港で夏の海開き、港フェスタです。まだ雨が残る中、体験航海等は中止になりましたが、艦艇の展示は行われました。小型艦が訪問する予定だった、富山新港の「ひうち」及び七尾港の「のとじま」公開は、残念ながら艦が出港しなかったので、軒並み中止となりました。

20150718_kanazawa_00jd151

朝、雨振りで空模様眺めでしたが、お昼にむけて出撃しました。

20150718_kanazawa_01jd151

金沢港戸水埠頭は、制限区域なので、パスをもらって入場です。

20150718_kanazawa_02jd151

公開艦は、自衛艦DD151「あさぎり」

20150718_kanazawa_03jd151

解説板は風が強いので、艦舷にまとめてもやってあった。

20150718_kanazawa_04jd151

艦首から見ると、無量寺埠頭には、怪しいオレンジ軍団。

20150718_kanazawa_05jd151

62口径76mm速射砲

20150718_kanazawa_06jd151

アスロックランチャー

20150718_kanazawa_07jd151

艦対艦ミサイルランチャー

20150718_kanazawa_08jd151

3連装短魚雷発射管

20150718_kanazawa_09jd151

護衛艦あさぎり

20150718_kanazawa_10jd151

艦尾へ移って、短SAMランチャー

20150718_kanazawa_11jd151

艦尾の自衛艦旗も美しく

20150718_kanazawa_12jd151

恒例、「ありぎり」

20150718_kanazawa_13jd151

艦番号 151

20150718_kanazawa_14m8295

飛行甲板に昇ると、へりが搭載されていた。

20150718_kanazawa_15m8295

SH-60J 8295 館山の21飛行群から派遣されている。

20150718_kanazawa_16m8295

あさぎり型護衛艦は、60Jしか搭載できない。

20150718_kanazawa_17m8295

舞鶴の23航空隊は、すべてKになったので、21からの派遣なのだそうだ。

20150718_kanazawa_18m8295

20150718_kanazawa_19m8295

20150718_kanazawa_20m8295

20150718_kanazawa_21m8295

搭乗員の皆さんが熱心に説明していた。

20150718_kanazawa_22jd151

この「あさぎり」は、今はなき石川播磨重工業東京第1工場製。残念ながら艦内は、公開されなかった。

20150718_kanazawa_23jd151

格納庫で、かわいいミニ潜水艦がクルクル

20150718_kanazawa_24jd151

舞鶴地方隊の、まいピーとまいくん

20150718_kanazawa_25jd151

はい、これにて下艦となります。

20150718_kanazawa_26jd151

コンテナ埠頭なので、これ以上は入れません。

20150718_kanazawa_27jd151

20150718_kanazawa_28jd151

20150718_kanazawa_29jd151

今年は体験航海がないので、比較的人出は少なかったね。

20150718_kanazawa_30cl150

CL150「わしかぜ」

20150718_kanazawa_31pc104

PC104「かがゆき」

20150718_kanazawa_32ship

海洋資源開発を支援する㈱オフショア・オペレーションって会社の船団です。

20150718_kanazawa_33inuwashi

金沢港の引き舟「いぬわし」

20150718_kanazawa_34pl43

PL43「はくさん」

20150718_kanazawa_35kontena

今年は、海上コンテナの作業状態も展示されていた。動いて搭載デモでもすれば、お客さんが来たのではないかな。

20150718_kanazawa_36port

雨にも負けず、風にもめげず

| | コメント (0) | トラックバック (0)

2015/07/17

台風 富山空港 2015/7/17 fri

・ANA317 G/A
・フジドリームエアライン 稚内チャーター(帰り)

台風11号が四国中国地方を自転車操業?しているこの日。所要があって市内にいた。用事が終わって、そのまま河原へ。こんな時こそ、血が騒ぐバカです。

RJNT 170700Z VRB03KT 9999 -SHRA FEW020 SCT050 BKN080 30/19 Q0999

20150717_rjnt_00ja66an

METAR上は弱い風なのだが・・・ 急にドライヤーをあてられたような熱い風が東から吹いてきた。

20150717_rjnt_01ja66an

タワーからは頻繁に風情報が通報されている

20150717_rjnt_02ja66an

スレッショルドで、左から煽られた・・・

20150717_rjnt_03ja66an

姿勢を回復して、降りる???・・・

20150717_rjnt_04ja66an

G/A 上昇にうつりました

20150717_rjnt_05ja66an

上昇してライトダウンウインドへ、周回して再チャレンジ。後で観測は、幅広いふり幅で風が巻いたようだ。

RJNT 170732Z 17008G20KT 080V260 9999 -SHRA FEW020 BKN050 BKN070 32/17 Q0999 RMK 1CU020 5CU050 7AC070 A2952

20150717_rjnt_06ja66an

城山からベースに入って、少し斜め気味にファイナルへ

20150717_rjnt_07ja66an

オン ファイナル

20150717_rjnt_08ja66an

今回は、大丈夫そうです。

20150717_rjnt_09ja66an

ANA317 RJTT-RJNT JA66AN B737-881

20150717_rjnt_10ja66an

それでも、ウイングローで接地

20150717_rjnt_11ja66an

お疲れ様でした。ウインドソックスは、水平でパンパン。

20150717_rjnt_12boad

さて、今日は先日の稚内チャーターの帰着日

20150717_rjnt_13boad

あわせて、静岡への帰りチャーターの出発

RJNT 170800Z 18010G24KT 130V240 9999 -SHRA FEW020 SCT050 BKN070 30/19 Q1000

20150717_rjnt_14ja66an

風は強いのですが、雨はパラパラが続いている

20150717_rjnt_15ja66an

台風の中、おじさん達も一所懸命お手振り中

20150717_rjnt_16ja66an

RW20上がり

20150717_rjnt_17ja66an

20150717_rjnt_18ja66an

ANA320 RJNT-RJTT JA66AN B737-881

RJNT 170900Z 17008KT 120V200 9999 -SHRA FEW020 SCT050 BKN080 31/18 Q1000

20150717_rjnt_19ja04fj

当然? みどりちゃんです。

20150717_rjnt_20ja04fj

20150717_rjnt_21ja04fj

FDA5700 RJCW-RJNT JA04FJ ERJ-170SU

RJNT 171000Z 18015G36KT 110V260 9999 -SHRA FEW020 SCT050 BKN080 30/18 Q1000

20150717_rjnt_22ja04fj

静岡帰りのお客さんが乗って・・ 富山、北アルプスはいかがでしたか?

20150717_rjnt_23ja04fj

20150717_rjnt_24ja04fj

20150717_rjnt_25ja04fj

ANA319が先に着陸

20150717_rjnt_26ja58an

20150717_rjnt_27ja58an

ANA319 RJTT-RJNT JA58AN B737-881

20150717_rjnt_28ja04fj

20150717_rjnt_29ja04fj

20150717_rjnt_30ja04fj

FDA5199 RJNT-RJNS JA04FJ ERJ-170SU

RJNT 171032Z 18010G21KT 110V210 9999 -SHRA FEW020 SCT050 BKN100 32/17Q1000 RMK 1CU020 3CU050 6AC100 A2956

しっとりしているのに、昼間のような暑さ。モンスーンやな。

では、台風の再接近を見てみましょう。

RJNT 170800Z 18010G24KT 130V240 9999 -SHRA FEW020 SCT050 BKN070 30/19 Q1000
RJNT 170732Z 17008G20KT 080V260 9999 -SHRA FEW020 BKN050 BKN070 32/17 Q0999 RMK 1CU020 5CU050 7AC070 A2952
RJNT 170700Z VRB03KT 9999 -SHRA FEW020 SCT050 BKN080 30/19 Q0999
RJNT 170620Z VRB03KT 9999 -SHRA FEW020 SCT050 BKN080 27/24 Q1000 RMK 1CU020 3CU050 6AC080 A2953
RJNT 170607Z 36003KT 310V080 9999 SHRA FEW020 SCT050 BKN080 26/24 Q0999 RMK 1CU020 4CU050 6AC080 A2953
RJNT 170600Z 34005KT 310V020 9999 -SHRA FEW020 BKN080 BKN100 26/24 Q1000
RJNT 170500Z 01005KT 340V050 9999 -SHRA FEW030 BKN100 BKN140 26/23
Q0999
RJNT 170400Z 06005KT 010V130 9999 -SHRA FEW030 BKN100 BKN140 26/24 Q1000
RJNT 170300Z 07003KT 030V100 9999 FEW010 BKN100 BKN140 26/23 Q1000
RJNT 170200Z 36004KT 9999 FEW004 SCT060 BKN100 26/23 Q1001

RJNK 171000Z 21012G22KT 170V240 9999 -SHRA FEW025 OVC080 29/18 Q1000
RJNK 170900Z 18015G30KT 150V210 9999 -SHRA FEW030 SCT080 OVC100 30/16 Q0999
RJNK 170800Z 16018G30KT 130V190 9999 FEW050 SCT080 OVC100 31/17 Q0998
RJNK 170700Z 17014G24KT 130V190 9999 FEW025 OVC100 31/19 Q0998
RJNK 170600Z 20010G21KT 9999 FEW025 SCT050 OVC100 31/20 Q0998
RJNK 170500Z 09005KT 030V150 9999 SCT025 BKN050 OVC100 29/22 Q0998
RJNK 170400Z VRB03KT 9999 -SHRA FEW025 BKN050 OVC100 30/20 Q0998
RJNK 170300Z 04008KT 350V050 9999 -SHRA FEW025 BKN050 OVC100 28/22
Q0998
RJNK 170200Z 11008G18KT 070V160 9999 -SHRA FEW030 SCT050 OVC150 29/20 Q0999
RJNK 170100Z VRB04KT 9999 FEW020 SCT050 OVC150 27/23 Q1000

RJBB 161930Z 07009KT 9999 SHRA FEW003 SCT015 BKN035 24/23 Q0992 TEMPO 3000 +SHRA BR
RJBB 161913Z 07011KT 6000 R06R/P1800N R06L/1300V1700N SHRA FEW003 SCT015 BKN035 24/23 Q0991 RMK 1ST003 4CU015 6CU035 A2929
RJBB 161900Z 08010KT 4500 R06R/P1800N R06L/1300V1800U SHRA FEW003 SCT020 BKN040 24/23 Q0991 TEMPO 3000 +SHRA BR
RJBB 161848Z 07012KT 4500 R06R/P1800N R06L/0900VP1800D SHRA FEW003 SCT020 BKN040 24/23 Q0991 RMK 1ST003 4CU020 6CU040 A2928
RJBB 161842Z 07013KT 6000 R06R/P1800N R06L/1800N SHRA FEW003 SCT020 BKN040 24/23 Q0991 RMK 1ST003 4CU020 6CU040 A2928
RJBB 161830Z 08013KT 3000 R06R/P1800N R06L/P1800U SHRA FEW003 SCT020 FEW020CB BKN040 24/23 Q0991 NOSIG
RJBB 161825Z 07014KT 3500 R06R/P1800N R06L/P1800D +SHRA FEW003 SCT020 BKN040 24/23 Q0991 RMK 1ST003 4CU020 6CU040 A2926
RJBB 161800Z 07014KT 9999 SHRA FEW003 SCT020 BKN040 24/23 Q0991 TEMPO 3000 SHRA BR
RJBB 161730Z 06015KT 9999 SHRA FEW003 SCT020 BKN045 24/23 Q0991 TEMPO 3000 SHRA BR
RJBB 161700Z 06018KT 9999 R24L/P1800N R06L/P1800N SHRA FEW003 SCT025 BKN045 24/23 Q0991 TEMPO 3000 SHRA BR
RJBB 161651Z 06020KT 4500 SHRA FEW003 SCT025 BKN045 24/23 Q0991 RMK 1ST003 4CU025 6CU045 A2927
RJBB 161630Z 06021KT 8000 SHRA FEW003 SCT025 BKN045 24/23 Q0991 TEMPO 3000 SHRA BR
RJBB 161600Z 06020KT 9000 R06R/P1800N R06L/1800U SHRA FEW003 SCT025 BKN045 24/23 Q0991 TEMPO 3000 SHRA BR FEW003 BKN008 BKN015
RJBB 161543Z 05020KT 4000 SHRA BR FEW003 SCT025 BKN070 24/23 Q0991 RMK 1ST003 4CU025 6AC070 A2927
RJBB 161530Z 06022KT 9000 SHRA FEW003 SCT025 BKN070 24/23 Q0991 TEMPO 3000 SHRA BR FEW003 BKN008 BKN015
RJBB 161500Z 06020KT 9999 SHRA FEW005 SCT025 BKN070 24/23 Q0991 TEMPO 3000 SHRA BR FEW003 BKN008 BKN015
RJBB 161430Z 06022KT 9999 -SHRA FEW005 SCT025 BKN070 25/23 Q0991 TEMPO SHRA
RJBB 161400Z 05024KT 9999 -SHRA FEW005 SCT025 BKN090 25/23 Q0991 TEMPO SHRA
RJBB 161330Z 06024KT 9999 -SHRA FEW005 SCT025 BKN100 25/23 Q0990 TEMPO SHRA
RJBB 161300Z 06023KT 9999 -SHRA FEW005 SCT025 BKN100 25/23 Q0990 TEMPO SHRA
RJBB 161230Z 05026KT 9999 -SHRA FEW008 SCT025 BKN100 25/23 Q0990 TEMPO SHRA
RJBB 161200Z 06026KT 9999 -SHRA FEW008 SCT025 BKN100 26/23
Q0990 TEMPO SHRA
RJBB 161130Z 05023KT 9999 -SHRA FEW003 SCT025 BKN100 26/23 Q0991 TEMPO SHRA
RJBB 161100Z 05023KT 9999 -SHRA FEW003 SCT025 BKN070 26/24 Q0991 TEMPO SHRA
RJBB 161030Z 05023KT 9999 -SHRA FEW003 SCT025 BKN070 26/23 Q0991 TEMPO SHRA
RJBB 161000Z 05023KT 9999 -SHRA FEW003 SCT025 BKN070 26/24 Q0991 NOSIG
RJBB 160930Z 05022KT 9999 -SHRA FEW003 SCT025 BKN070 26/24 Q0992 NOSIG

RJOT 162144Z VRB01KT 5000 -SHRA BR FEW001 SCT020 BKN030 23/22 Q0990 RMK 1ST001 3CU020 5CU030 A2925 P/RR
RJOT 162120Z 25004KT 180V280 4000 SHRA BR FEW002 SCT020 BKN030 23/22 Q0989 RMK 1ST002 3CU020 5CU030 A2922 P/RR
RJOT 161243Z 06025G37KT 3500 R26/1400V1800U +SHRA FEW003 SCT015 BKN025 24/23 Q0987 RMK 1ST003 3CU015 5CU025 A2915
RJOT 161221Z 06024G43KT 4000 +SHRA FEW003 SCT015 BKN025 24/23
Q0987 RMK 1ST003 3CU015 5CU025 A2916
RJOT 161200Z 06024G35KT 4000 SHRA FEW003 SCT015 BKN025 24/23 Q0988
RJOT 161100Z 06022G38KT 4000 SHRA FEW001 SCT010 BKN020 25/24 Q0989
RJOT 161039Z 06022G34KT 4000 +SHRA FEW001 SCT010 BKN020 24/23 Q0989 RMK 1ST001 3ST010 5CU020 A2921

RJOR 162200Z 05024KT 9999 -SHRA FEW007 SCT040 BKN070 23/20 Q0990
RJOR 162130Z 05029KT 8000 -SHRA FEW005 SCT025 BKN070 22/20 Q0989
RJOR 162110Z 05029KT 8000 -SHRA FEW005 SCT025 BKN070 22/20 Q0989 RMK 1ST005 3CU025 5AC070 A2923
RJOR 161200Z 05028KT 3000 -SHRA BR FEW005 SCT015 BKN030 22/21 Q0997
RJOR 161100Z 05025KT 3000 -SHRA BR FEW003 SCT008 BKN015 22/20
Q0997
RJOR 161000Z 04024KT 3000 R10/1800N -SHRA BR FEW003 SCT008 BKN015 22/20 Q0998
RJOR 160943Z 04025KT 3000 R10/1300VP1800U -SHRA BR FEW003 SCT008 BKN015 22/20 Q0998 RMK 1ST003 4ST008 5CU015 A2948

続きを読む "台風 富山空港 2015/7/17 fri"

| | コメント (0) | トラックバック (0)

2015/07/15

定点 富山空港 2015/7/15 wed

・フジドリームエアライン 稚内チャーター
・上海航空 水曜日臨時便
・海保 JA916A みさご初飛来

RJNT 142200Z VRB02KT 8000 FEW060 26/23 Q1008

20150715_rjnt_00ja62an

20150715_rjnt_01ja62an

ANA312 RJNT-RJTT JA62AN B737-881

20150715_rjnt_02ja81an

20150715_rjnt_03ja81an

ANA311 RJTT-RJNT JA81AN B737-881

20150715_rjnt_04ja04fj

緑の中のみどり

20150715_rjnt_05ja04fj

FDA5191 RJNS-RJTT JA04FJ ERJ-170SU

20150715_rjnt_06ja02kg

ドクターへりが中央病院へ

20150715_rjnt_07ja02kg

JA02KG A109E KKG

20150715_rjnt_08ja6193

JA6193 B206B AAK

20150715_rjnt_09ja81an

20150715_rjnt_10ja81an

ANA314 RJNT-RJTT JA81AN B737-881

20150715_rjnt_11boad

新しい表示板になって、しっかり表示されています。入りこみもツアー客もありました。

20150715_rjnt_12terminal

空港ロビーの展示は、魚津のじゃんとこいまつり

20150715_rjnt_13boad

出発に稚内 こんな表示が見れるとは・・・

RJNT 150000Z 35006KT 310V020 9999 FEW030 29/22 Q1007

20150715_rjnt_14ja04fj

見送りにお手振りです。

20150715_rjnt_15ja04fj

20150715_rjnt_16ja04fj

20150715_rjnt_17ja04fj

FDA5703 RJTT-RJCW JA04FJ ERJ-170SU

20150715_rjnt_18boad

今日のもう一つのトピック。水曜日に上海が臨時で増えます。夏の間8/19まで。

20150715_rjnt_19ja6193

JA6193 B204B AAK

20150715_rjnt_20b2297

20150715_rjnt_21b2297

CSN613 ZYTL-RJNT B-2297 A319-132

RJNT 150200Z 35008KT 320V030 9999 FEW030 30/22 Q1007

20150715_rjnt_22ja6193

JA6193 B206B AAK なんか、こればっか撮ってる

20150715_rjnt_23ja916a

なになに、聞きなれないコール。7月11日に巡視船「えちご」に配備されたばかりの搭載へり「みさご」がやってきた。

20150715_rjnt_24ja916a

JA916A S-76D JCG

20150715_rjnt_25ja57an

ANA1181 RJNT-RJCC JA57AN B737-881

20150715_rjnt_26b2297

CSN614 RJNT-ZYTL B-2297 A319-132

20150715_rjnt_27bird

これって・・・ みさご?? 

20150715_rjnt_28ja6512

JA6512 AS350B3  AAK

20150715_rjnt_29ja63an

20150715_rjnt_30ja63an

地元マスコミが上海待ちの前にRNAVで着陸

20150715_rjnt_31ja63an

ANA315 RJTT-RJNT JA63AN B737-881

20150715_rjnt_32b5545

上海は、可憐なるサークリングで進入

20150715_rjnt_33b5545

20150715_rjnt_34b5545

20150715_rjnt_35b5545

地元マスコミが集っただけで、歓迎とかは特になし。でも、南方と上海両方のお客で、一ツアーのバスに集約していた。

20150715_rjnt_36b5545

CSH825 ZSPD-RJNT B-5545 B737-86N

RJNT 150400Z 35008KT 310V020 9999 FEW030 31/21 Q1006

20150715_rjnt_37ja916a

「みさご」始動

20150715_rjnt_38ja63an

待ったけど・・・ 先にタクシーアウト

20150715_rjnt_39ja63an

20150715_rjnt_40ja916a

「えちご」搭載で見てみたい・・ でも最近海保は公開ないからね

20150715_rjnt_41ja916a

JA916A S-76D JCG

20150715_rjnt_42ja63an

20150715_rjnt_43ja63an

ANA316 RJNT-RJTT JA63AN B737-881

20150715_rjnt_44b5545

20150715_rjnt_45b5545

違うお客さんとのツーショット

20150715_rjnt_46b5545

CSH826 RJNT-ZSPD B-5545 B737-86N

20150715_rjnt_47ja6768

JA6768 B412 富山県消防防災

20150715_rjnt_48ja01yp

昨日から、小矢部のアウトレット取材で各社のへりがフライトしている。

20150715_rjnt_49ja01yp

JA01YP AS365N2 YSP

今日は、これにて離脱

続きを読む "定点 富山空港 2015/7/15 wed"

| | コメント (0) | トラックバック (0)

2015/07/13

大人の休日 函館-富山 2015/6/29 mon

前日に別海駐屯地から函館に戻って、本日は、とにかく帰り道です。

20150629_tetsu_00hakodate

昨晩から雨降りで、今一の函館の朝

20150629_tetsu_01j8009

ホームにはカシオペア牽引のED79が・・

20150629_tetsu_02j8009

後ろには、寝台車がまさしく、凸凸に引かれて出発するところ

20150629_tetsu_03j8009

凸凸も長くがんばりますねぇ

20150629_tetsu_04j4014m

さて、ここから乗車するスーパー白鳥が入線

20150629_tetsu_05j4014m

この列車も、もう一年もしない内に見ることができなくなる。

20150629_tetsu_06hakodate

函館駅は、JR北海道色のキハ40天国

20150629_tetsu_07j4014m

乗車は、「スーパー白鳥14号」 4014M モハ788-204

20150629_tetsu_08kikonai

木古内駅通過 北海道新幹線の木古内駅です。

20150629_tetsu_09j4095m

青森に着いて、折り返し待ちをしていると・・・

20150629_tetsu_10aomori

こちら青い森鉄道の703系 これは快速使用のクロスシート車

20150629_tetsu_11j4014m

先の783は、「スーパー白鳥95号」と並び

20150629_tetsu_12j4014m

新青森駅到着 すぐさま回送となり津軽新城方面へ引上ます。

20150629_tetsu_13shinaomori

新幹線への乗り換え口、この表示もあとしばらくね。

20150629_tetsu_14shinaomori

東北新幹線乗車は、「はやぶさ14号」

20150629_tetsu_15j3014b

3014B E526-119 U19

20150629_tetsu_16j3014b

ウトウトしている内に大宮到着

20150629_tetsu_17j3014b

東京方へ向かう「はやぶさ・こまち14号」

20150629_tetsu_18oomiya

ここからは、北陸ではなく上越で、長岡まで。久々の「とき」乗車。

20150629_tetsu_19j323c

「とき323号」 323C E224-25 J25

20150629_tetsu_20j323c

がんばろう日本掲示のE2系

20150629_tetsu_21j3016m

長岡で在来線信越本線乗り換え。懐かしい「しらゆき」です。

20150629_tetsu_22j3016m

「しらゆき6号」 3016M クハE653-1103

20150629_tetsu_23j1644d

直江津で、トキ鉄に乗り換え 1644D ET122-6

20150629_tetsu_24itoigawa

糸魚川駅で途中下車。前方はJR西日本大糸線

20150629_tetsu_25itoigawa

キハ120-341

20150629_tetsu_26itoigawa

糸魚川の駅名票もトキ鉄のものに

20150629_tetsu_27itoigawa

しばらくの時間キハ52を拝みに

20150629_tetsu_28itoigawa

ジオラマを走るキハ52

20150629_tetsu_29itoigawa

音もなく、大糸線がコトコト出発して行った。

20150629_tetsu_30j1464d

次、泊までの乗車は、トキ鉄のハデハデ花列車

20150629_tetsu_31j1464d

室内は橙系のオールクロスシート 1646D ET122-8

20150629_tetsu_32j1464d

この列車も泊駅進入の様子を確認。後着で、誘導信号による進入。

20150629_tetsu_33j1464d

前方には、あいの風の413系が停車中

20150629_tetsu_34j1464d

反対側は花の種類が違いました。

20150629_tetsu_35tomari

泊駅の乗り換え案内

20150629_tetsu_36j564m

長かった「大人の休日」も、これでラストラン 564M モハ412-7

4日間に渡る大人の休日パスによる北海道旅行も、これにて終了。なかなかつぉーい切符で、クセになりそうです。長々とお付き合いありがとうございました。

| | コメント (0) | トラックバック (0)

2015/07/12

艦艇三昧 七尾港・伏木港・直江津港 2015/7/11 sat

先週の姫川に続いて、夏の艦艇広報が盛りだくさん。今日は一日艦艇三昧。早朝からスタートです。

20150711_nanao_00inderton

富山伏木港に早朝の入港。実質ロシアの海運会社 INDERTON LINE のモンゴル船籍のRORO船 「RYOFU」です。中古車の輸出で寄港かな。おっと、これを見にきたわけじゃぁぁ・・・

20150711_nanao_01aoe426

昨日入船で入港した、自衛艦AOE426「おうみ」です。11,12日に一般公開される。まだ、お休み中です。そりゃまだ6時過ぎ・・ ここで開場を待つ? 分けないでしょ。

☆☆☆ 七尾港 ☆☆☆

氷見から能越自動車道をひとっ走りで、七尾港は矢田新第一埠頭に到着。

20150711_nanao_02pc220

海保のPC220「はまゆき」

20150711_nanao_03ishikawa

石川県警察の「いしかわ」

じゃないでしょ

20150711_nanao_04msc685

七尾での艦艇公開は、掃海艇MSC685「とよしま」

20150711_nanao_05msc685

当然8時の自衛艦旗掲揚に臨席です。

20150711_nanao_06msc685

「とよしま」は、佐世保地方隊下関基地隊所在の第43掃海隊所属

20150711_nanao_07msc685

隊司令が七尾出身と言うことでの寄港の模様

20150711_nanao_08msc685

今年の能登地区は、この「とよしま」と「のとじま」が広報艦。

20150711_nanao_09msc685

地本テントしか出店がない。そろった缶パン。糧食を展示していた。

20150711_nanao_10msc685

9時前に準備が整い公開開始。ただ、この時間で見学者は片手・・・ 寂しい

20150711_nanao_11msc685

係維掃海に使用するフロート

20150711_nanao_12msc685

前方には20mm機関砲

20150711_nanao_13msc685

緑玉のとよしま

20150711_nanao_14msc685

イエローサブマリン じゃなかった、機雷処分具

20150711_nanao_15msc685

ブリッジ

20150711_nanao_16msc685

艇尻の自衛艦旗 ひゃー滞在時間は賞味10分・・

まだ見ていたいのですが、来た道を伏木へ戻ります。

☆☆☆ 富山伏木港万葉埠頭 ☆☆☆

20150711_fushiki_21aoe426

10時前にもどってきて、「おうみ」が見えてきました。

20150711_fushiki_20aoe426

丁度、氷見線のDCがやって来た。

20150711_fushiki_22aoe426

埠頭内に駐車して、まずは艦首へ 

20150711_fushiki_23aoe426

早々に乗艦して見学です。

20150711_fushiki_24aoe426_2

第1海上補給隊所属で母港は佐世保

20150711_fushiki_25aoe426

積載物がないので、中はがらんどう。

20150711_fushiki_26aoe426

艦首から上甲板に出ます。いたるところに信号旗の解説が JP5欲しい・・

20150711_fushiki_27aoe426

ハイラインする補給ステーションがそびえ立つ

20150711_fushiki_28aoe426

赤はミサイル 緑は弾薬

20150711_fushiki_29aoe426

ブリッジは、ぬりかべぇぇぇ

20150711_fushiki_30aoe426

「おうみ」は、琵琶湖の古名「近江」に由来

20150711_fushiki_31aoe426

こちらも「おうみ」

20150711_fushiki_32aoe426

後部飛行甲板の自衛艦旗

20150711_fushiki_33aoe426

着艦標識

20150711_fushiki_34aoe426

再び艦内に戻って医療室。前日は医療関係者に内覧会があった模様。

20150711_fushiki_35aoe426

我等が海上自衛隊

20150711_fushiki_36aoe426

故郷は、舞鶴のユニバーサル造船

20150711_fushiki_37aoe426

残念ながら艦橋は公開されず。まあ、登ると大変だからね。ちなみにネームシップの「ましゅう」は、金沢港にいるらしい。

これにて第二ポイントを後にして、お隣新潟県の上越へ向かいます。

☆☆☆ 直江津港中央埠頭 ☆☆☆

今年の新潟地本の艦艇広報は、「新潟海遊紀行2015」と銘打って6箇所もあります。先週の姫川の次がこの直江津。

20150711_naoetsu_40ddg175

公開艦は舞鶴を母港とする第3護衛隊群第7護衛隊所属イージス護衛艦DDG175「みょうこう」

20150711_naoetsu_41ddg175

直江津港を出港する佐渡汽船の「あかね」。今年就航したばかりの、最新のウォータージェット船だ。 

20150711_naoetsu_42ddg175

14時前に到着して、艦橋見学の列に並んだ。合間にCIWSの操作展示。

20150711_naoetsu_43ddg175

並んで1時間。らっぱ隊がとおりかかった。すかさず演奏リクエスト らっぱ「君が代」。連れは、そうとう毒されている??

20150711_naoetsu_44ddg175

艦橋が狭いので、なかなか見学者がはけず牛歩で前進。

20150711_naoetsu_45ddg175

ようやく、登舷近くのテントに到着。ここまで2時間。艦橋はウイング見学が中止されている。

20150711_naoetsu_46ddg175

ようやく乗艦

20150711_naoetsu_47ddg175

ハープーンの下を通って・・・

20150711_naoetsu_48ddg175

ようやく艦内に入りました。Welcom to MYOKO

20150711_naoetsu_49ddg175

この艦は弾道ミサイル防衛機能を持つSM-3搭載。 STEELAR RAICHO 「星の雷鳥」と言うんだ。また MYOKO は、 SPACE COMBAT AEGIS DESTROIER  なんかスゴ

イージス護衛艦「みょうこう」によるBMDテストの公式ビデオ

20150711_naoetsu_50ddg175

ラッタルを5,6段昇って、ようやく艦橋到着。ここまで並んでから2時間半。

20150711_naoetsu_51ddg175

艦橋はゆっくり見学できなくて、なんとなく流れで見て行きます。

20150711_naoetsu_52ddg175

でも、操艦台等は、バッチシ見学できます。まあ、火が入ってないと面白くもないのですが・・・

20150711_naoetsu_53ddg175

艦橋下には、怪しい部屋がいくつもありました。

20150711_naoetsu_54ddg175

艦前部に降りて、スパイレーダーを見て・・

20150711_naoetsu_55ddg175

艦首には、美しい日の丸

20150711_naoetsu_56ddg175

54口径127mm速射砲

20150711_naoetsu_57ddg175

前部VLS

20150711_naoetsu_58ddg175

みょうこう です。

20150711_naoetsu_59ddg175

こちらも、みょうこうです。

20150711_naoetsu_60ddg175

艦後方のレーダー群を眺めながら・・・

20150711_naoetsu_61ddg175

後部VLS

20150711_naoetsu_62ddg175

定番、自衛艦旗 

20150711_naoetsu_63ddg175

地上を見ると、陸上の展示も撤収の時間。

20150711_naoetsu_64ddg175

名残惜しいのですが、降艦します。

20150711_naoetsu_65ddg175

人も大分はけて、後部から全景を

20150711_naoetsu_66ddg175

ふぅ。三連荘の最後に、とんだ誤算でした。疲れー! でも、また行くもん。

三昧は、これにて終了。今年は何艦訪問できるかな???

| | コメント (0) | トラックバック (0)

2015/07/11

別海駐屯地創立50周年記念行事2 別海駐屯地 2015/6/28 sun

その1からつづき

観閲行進につづいて、音楽隊の演奏

20150628_bekkai_35jg

多少ドリルも織り込んで・・

20150628_bekkai_36jg

最初は、オートバイドリル

20150628_bekkai_37jg

くっつきます。くっつきます。

20150628_bekkai_38jg

7人の・・ じゃなくて9人の○ ワイルド7みたいだ・・

20150628_bekkai_39jg

真剣!

20150628_bekkai_40jg

一直線になって、まわって、まわって・・

20150628_bekkai_41jg

クロス・クロス

20150628_bekkai_42jg

ウィー 見てよー

20150628_bekkai_43jg

はーい、さよならぁぁぁぁ これはスゴ

20150628_bekkai_44jg

敵陣で赤旗が揚がって、状況開始。

20150628_bekkai_45jg41813

へりで敵陣偵察

20150628_bekkai_46jg41813

20150628_bekkai_47jg41813

敵から発砲があり、応戦です。

20150628_bekkai_48jg

敵陣は、こんな状況。

20150628_bekkai_49jg41813

ヘリボーンで進入します。

20150628_bekkai_50jg

オートバイ隊も進出して、偵察活動。

20150628_bekkai_51jg

もちろん、偵察警戒車も追従します。

20150628_bekkai_52jg

摘の状況が把握され、迫撃砲で攻撃指令

20150628_bekkai_53jg

いきなりですが、90式戦車も参戦

20150628_bekkai_54jg

普通科は装輪装甲車で進出

20150628_bekkai_55jg

下車戦闘に移ります。

20150628_bekkai_56jg

至近距離で対峙

20150628_bekkai_57jg

敵にも戦車があり対戦車砲が展開しています。

20150628_bekkai_58jg

敵陣へ攻撃で、戦車が突進

20150628_bekkai_59jg

この加速がキモ

20150628_bekkai_60jg

装甲車も続く

20150628_bekkai_61jg41813

最後にへりが航過して・・

20150628_bekkai_62jg

白旗で状況終了。

20150628_bekkai_63jg

展示場に82式指揮通信車

20150628_bekkai_64jg

90式戦車 え、見えない? そうなんですよね。

20150628_bekkai_65jg

体験試乗は、装甲車

20150628_bekkai_66jg

飛行していたへりは、飛行場地区に着陸。たぶん、弁当届けただよな。

20150628_bekkai_67jg

のんびり、ほぼ地元と家族の人達の遊園地ですね。

20150628_bekkai_68jg

はい、展示用の適役していた戦車が動かない模様・・ 急遽走り回った戦車に客席の取り付け中。

20150628_bekkai_69jg

90式戦車の体験試乗も始まりました。

20150628_bekkai_70jg

エア90戦車は、お役御免 小生も撤収の途へ

| | コメント (0) | トラックバック (0)

2015/07/10

別海駐屯地創立50周年記念行事1 別海駐屯地 2015/6/28 sun

別海町鉄道公園から西に少し行くと、おいしい牛乳のmeijiの工場があり。

20150628_bekkai_00jg

国道沿いに立て看

20150628_bekkai_02jg

計根別飛行場を偵察していると、警務隊のトラックが通過。その後を追って・・

20150628_bekkai_01jg

実際の計根別は11km先・・ そのまま直進すると

20150628_bekkai_03jg

そこは、我ら道東第一線の陸上自衛隊別海駐屯地です。

20150628_bekkai_04jg

今年は、駐屯地創立50周年で、なんとか見に来ることが出来ました。

20150628_bekkai_05jg

駐屯地司令は、第5偵察隊長

20150628_bekkai_06jg

庁舎玄関には、Welcomマット 海自みたい

20150628_bekkai_07jg

矢臼別演習場を管理する別海業務隊も所在する。

20150628_bekkai_08jg

堂々の90式戦車登場

20150628_bekkai_09jg

もう一つは釧路が本部の第27普通科連隊の第3中隊が派遣されている。

20150628_bekkai_10jg

グランド脇には、本物の90式戦車が隠れ・・

20150628_bekkai_11jg

エア戦車は、第5後方支援隊が準備したもの。これ第5旅団管内なら見れるそうだ。

20150628_bekkai_12jg

5偵の軽装甲輸送車

20150628_bekkai_13jg

普通科が備える96式装輪装甲車

20150628_bekkai_14jg

偵察の要、87式偵察警戒車

20150628_bekkai_15jg

駐屯地のマークは白鳥。屈斜路湖の白鳥だろうか・・

20150628_bekkai_16jg

観閲行進に待機する車両

20150628_bekkai_17jg

脇には退役した装備が展示されている。

20150628_bekkai_18jg

先頭に珍しくなった73式小型トラックが

20150628_bekkai_19jg

対面は、計根別飛行場へ続く門が

20150628_bekkai_20jg

第5音楽隊から入場が始まった。

20150628_bekkai_21jg

第5偵察隊

20150628_bekkai_22jg

第27普通科連隊第3中隊、別海業務隊と旗がつづいて

20150628_bekkai_23jg

執行官登壇

20150628_bekkai_24jg

国旗入場

20150628_bekkai_25jg

受閲

20150628_bekkai_26jg

観閲行進へうつれ

20150628_bekkai_27jg

先頭で特別に紹介された

20150628_bekkai_28jg

第5偵察隊から行進開始

20150628_bekkai_29jg

偵察オートバイ隊が続きます

20150628_bekkai_30jg

偵察警戒車も定番

20150628_bekkai_31jg

85式地上レーダー装置

20150628_bekkai_32jg

第27普通科連隊第3中隊

20150628_bekkai_33jg

第5戦車大隊(鹿追)から90式戦車

20150628_bekkai_34jg

最後は、第5飛行隊のへり。ちゃんと機長が敬礼しています。 JG41813 V UH-1J

その2へつづく・・・

| | コメント (0) | トラックバック (0)

2015/07/09

大人の休日 釧路・・-函館 2015/6/28 sun

大人の休日その3

20150628_tetsu_00kushiro

前日釧路駅到着後、駅レンタカーを借りて宿泊地へ移動。翌朝早くに出発です。

20150628_tetsu_01kushiroarsr

国道272号線を北上する途中で、きのこ狩。釧路ARSRです。

20150628_tetsu_02bekkai

目的地到着。かつて、ゴトゴト走しっていた音が聞こえそう。

20150628_tetsu_03bekkai

ここは、別海町西春別。かつての標津線西春別駅跡。

20150628_tetsu_04bekkai

別海町鉄道記念公園になっています。たぶん十数年ぶりの訪問。

20150628_tetsu_05d5127

樺太帰りのD51-27

20150628_tetsu_06yo4642

懐かしい ヨ3500型4642

20150628_tetsu_07yo4642

チョッコッと室内を覗くと、昔にタイムスリップ

20150628_tetsu_08ki276

後ろにはキ100型276

20150628_tetsu_09bekkai

塗りなおしの時に ヨ276となったのはご愛嬌? でも小さいロは残っていた。

20150628_tetsu_10kh22239

光進駅の次が西春別駅

20150628_tetsu_11kh22239

キハ22型22-239 少し傾いているかな

20150628_tetsu_12kh22239

足回りはまだ大丈夫そうだけど・・・ あと何年持つのか

20150628_tetsu_13jnishisyunbetsu

各駅の駅名票が並んでいます。昔と変っていない。

20150628_tetsu_14jbekkai

ここは人より牛の方が多い別海町。矢臼別演習場があるのも、この町。

20150628_tetsu_15jnishisyunbetsu

鉄道が動いている間に来たかったな。

20150628_tetsu_16d5127

D51-27蒸気機関車の由来。

ここまで早朝に一覧してから、本日の目的地へ それは、後報で。

20150628_tetsu_17kh54515

別海から釧路駅へもどって遅い昼食。キハ54-515

20150628_tetsu_18j4005d

札幌からのスーパーおおぞら5号が到着です。 4005D

20150628_tetsu_19j4010d

折り返しの「スーパーおおぞら10号」で帰ります。 4010D 行きと同じ283系。キハ282-3002乗車

20150628_tetsu_20j5018d

南千歳で「スーパー北斗18号」に乗り換えます。 5018D

20150628_tetsu_21j5018d

釧路から7時間。乗りっぱなしの旅で函館到着。乗車したのは自由席のキハ281-901。この車両、以前にも乗車したことがあるのだが、構造が悪いのか、相変わらずトイレは臭かった。

20150628_tetsu_22jhakodate

函館の夜は更けて、駅には「はまなす」待ちの乗客だけになった。

| | コメント (0) | トラックバック (0)

2015/07/08

定点 富山空港 2015/7/8 wed

♪雨が空から降れば・・・ 小室等  しょうがない 雨の日はしょうがない・・・

RJNT 080200Z 35003KT 280V050 8000 -RA FEW010 SCT030 BKN100 23/21 Q1013

20150708_rjnt_00ja51an

20150708_rjnt_01ja51an

ANA1181 RJNT-RJCC JA51AN B737-881

20150708_rjnt_02ja9690

JA9690 AS332L AAK

これがやってくると、夏ですなぁ~!

20150708_rjnt_03b2296

20150708_rjnt_04b2296

CSN614 RJNT-ZYTL B-296 A319-132

20150708_rjnt_05ja02kg

JA02KG

雨の日はしょうがない・・ お休みです。

20150708_rjnt_06ja78an

20150708_rjnt_07ja78an

20150708_rjnt_08ja78an

20150708_rjnt_09ja78an

ANA315 RJTT-RJNT JA78AN B737-881

20150708_rjnt_10aar

アシアナの運休は、7/21まで 別に帰ってこんでも、イイけど

RJNT 080400Z 35007KT 8000 -SHRA FEW006 SCT010 BKN015 21/21 Q1014

20150708_rjnt_11ja78an

20150708_rjnt_12ja78an

20150708_rjnt_13ja78an

ANA316 RJNT-RJTT JA78AN B737-881

続きを読む "定点 富山空港 2015/7/8 wed"

| | コメント (0) | トラックバック (0)

2015/07/07

大人の休日 新千歳空港-釧路 2015/6/27 sat

新千歳空港で一時空模様を記録して、次の目的地へ向けて「大人の休日」を続けます。

20150627_jrhk_00j2899m

新千歳空港から南千歳まで激混みのカムイエアポートで一駅。

2899M 快速エアポート143号

20150627_jrhk_01minamichitose

南千歳駅で狩勝峠越えで釧路まで向かいます。この辺、疲労からか車番等の記録が取れてません。

20150627_jrhk_02minamichitose

今や北海道のハブ 南千歳です。

20150627_jrhk_03ja349j

JAL3107 RJGG-RJCC JA349J B737-846

乗り換え待ち時間もしっかり、空を見ています。

20150627_jrhk_04j4007d

4007D スーパーおおぞら7号 南千歳-釧路

20150627_jrhk_05j4007d

振り子283系です。

20150627_jrhk_06j4007d

途中、鹿はねで10分ほどロスりましたが、夕闇迫る釧路に到着。今やホームで車内清掃をして20分ほどで札幌へ折り返して行きます。

20150627_jrhk_07kushiro

釧路の夜。みかわです。

| | コメント (0) | トラックバック (0)

2015/07/06

北空 新千歳空港 2015/6/27 sat

計画より早く千歳駅にもどって来たので、次の列車までの間、北の空展望に新千歳空港へもどります。

20150627_rjcc_00f3123

快速エアポート124号 3920M モハ721-3123

RJCC 270400Z VRB02KT 9999 -RA FEW020 SCT040 OVC090 19/14 Q1006 RMK 1CU020 3SC040 8AS090 A2973

小雨が降って、人の少ない送迎デッキで、しばらく粘ります。

20150627_rjcc_01ja8195

ANA707 RJGG-RJCC JA8195 B737-54K

20150627_rjcc_02ja8969

ANA63 RJTT-RJCC JA8969 B777-281

20150627_rjcc_03ja203j

JAL2806 RJSA-RJCC JA203J CRJ-200ER

20150627_rjcc_04b18201

CAL130 RCTP-RJCC B-18201 B747-409

20150627_rjcc_05ja208j

JAL2805 RJCC-RJSA JA208J CRJ-200ER

20150627_rjcc_06ja201j

JAL2826 RJSK-RJCC JA201J CRJ-200ER

20150627_rjcc_07ja711a

ANA289 RJFF-RJCC JA711A B777-281

20150627_rjcc_08b18201

中華のB4が見れるのも、あとしばらくかな

20150627_rjcc_09ja854a

ANA4873 RJCC-RJCK JA854A DHC8-402Q

20150627_rjcc_10b6636

CSE280 RJCC-ZSPD B-6636 A320-214

20150627_rjcc_11ja850a

ANA4865 RJCC-RJCM JA850A DHC8-402Q

20150627_rjcc_12ja01va

VNL907 RJAA-RJCC JA01VA A320-216

20150627_rjcc_13ja73an

ANA1182 RJCC-RJNT JA73AN B737-881

20150627_rjcc_14ja73nx

SKY713 RJTT-RJCC JA73NX B737-86N

20150627_rjcc_15b22102

TNA671 RJCC-RCTP B-22102 A330-343

20150627_rjcc_16ja08fj

FDA211 RJAF-RJCC JA08FJ ERJ-175STD

20150627_rjcc_17ja752a

ANA64 RJCC-RJTT JA752A B777-381

20150627_rjcc_18ja8567

ANA1174 RJCC-RJNK JA8567 B767-381

20150627_rjcc_19ja8944

JAL515 RJTT-RJCC JA8944 B777-346

20150627_rjcc_20ja12an

ADO105 RJSS-RJCC JA12AN B737-781

RJCC 270500Z 12005KT 9999 -RA FEW010 SCT040 BKN080 19/13 Q1006 RMK 1ST010 3SC040 7AS080 A2972 MOD TURB OBS AT 0447Z HPE FL260 B737

20150627_rjcc_21b5431

CCA170 RJCC-ZBAA B-5431 B737-86N

20150627_rjcc_22ja09an

ANA1713 RJBB-RJCC JA09AN B737-781

20150627_rjcc_23hl8253

TWB252 RJCC-RKSI HL8253 B737-86J

20150627_rjcc_24doraemon

今日もスマイルのドラえもん。次の目的地へ向かって・・ 旅は続く。

| | コメント (0) | トラックバック (0)

2015/07/05

夏到来 姫川港 2015/7/5 sun

Season in the sun 気がつけば北陸地方にも夏到来。海自艦艇公開がやってきた。糸魚川の姫川港は、例年ならばポートフェスティバルへの参加なのだが、今年はチョット時期がずれて単独での公開ですね。

20150705_himekawa_00himekawa

セメント積み出し港の姫川港到着

20150705_himekawa_01ams4301

今年の展示艦は、多用途支援艦AMS4301「ひうち」

20150705_himekawa_02ams4301

基準排水量980tの海自最小の艦です。

20150705_himekawa_03ams4301

それでは、乗艦しましょう。

20150705_himekawa_04ams4301

迎えてくれるのは、救急室の???

20150705_himekawa_05ams4301

一段ラッタルを上がると、そこはもう艦橋。

20150705_himekawa_06ams4301

諸現票がずらり

20150705_himekawa_07ams4301

艦橋からの眺め

20150705_himekawa_08ams4301

艦橋をぐるっと一周して、下に降ります。

20150705_himekawa_09ams4301

内火艇

20150705_himekawa_10ams4301

えい航ウインチと自走式水上標的

20150705_himekawa_13ams4301

標的のバラクーダは一槽のみ搭載してました。

20150705_himekawa_16ams4301

20150705_himekawa_17ams4301

ここからは、ひうち三昧

20150705_himekawa_11ams4301

20150705_himekawa_12ams4301

20150705_himekawa_14ams4301

20150705_himekawa_15ams4301

20150705_himekawa_18ams4301

20150705_himekawa_19ams4301

20150705_himekawa_20ams4301

20150705_himekawa_21ams4301

次は富山で逢いましょう。

20150705_himekawa_22kurohimemaru

太平洋セメントの黒姫丸

20150705_himekawa_23tsuruwamaru

バラ積船と思われる 敦和丸

20150705_himekawa_24ja32nh

NHKの取材へりも上空を通過 JA32NH

20150705_himekawa_25ams4301

敦和丸の入港を見て、現場離脱。小一時間の滞在でした。

| | コメント (0) | トラックバック (0)

2015/07/04

第1特科団創隊・北千歳駐屯地開庁63周年記念行事その3 北千歳駐屯地 2015/6/27 sat

その2からつづき

20150627_kitachitose_200jg

訓練展示の準備が整うまで、第1特科団音楽隊の演奏

20150627_kitachitose_201jg

後ろでは、散水車がドリルを・・ 

20150627_kitachitose_202jg

状況開始。敵に島が占領されてしまい、それを奪還するというシナリオ。

20150627_kitachitose_203jg

敵艦船が遊弋しています。トラックは船にもなります。

20150627_kitachitose_204jg

制海圏を取り戻すために地対艦ミサイルで攻撃です。

20150627_kitachitose_205jg

弾着、敵艦撃破!

20150627_kitachitose_206jg

敵陣地へ偵察隊が強行偵察です。偵察隊は71戦。

20150627_kitachitose_207jg

87式偵察警戒車も進出

20150627_kitachitose_208jg

偵察部隊の行動が察知され・・

20150627_kitachitose_209jg

敵側からの反撃が始まりました。

20150627_kitachitose_210jg

敵陣地を多連装ロケットシステムが阻止砲撃。実弾訓練は、国内では出来ないそうだ。

20150627_kitachitose_211jg

だんちゃーくぅぅ

20150627_kitachitose_212jg

戦車小隊が攻撃に入ります

20150627_kitachitose_213jg

うてぇぇー

20150627_kitachitose_214jg

さらに偵察隊が進出・・・

20150627_kitachitose_215jg

戦車部隊は警戒にあたり

20150627_kitachitose_216jg

203mm榴弾砲が支援砲撃を開始しました。

20150627_kitachitose_217jg

人力で再装填

20150627_kitachitose_218jg

榴弾砲3門が、連続射撃。

20150627_kitachitose_219jg

さらに攻撃戦車小隊が加わります。

20150627_kitachitose_220jg

90式戦車の空砲は、バシィといった乾いた音がします。

20150627_kitachitose_221jg

今度は一斉射撃で音は3倍?

20150627_kitachitose_222jg

戦車隊の砲撃も続きます。

20150627_kitachitose_223jg

戦車小隊とつげーき! 突進しながら砲撃です。

20150627_kitachitose_224jg

一服は、うまいのぉぉ 違うか・・

20150627_kitachitose_225jg

こちらも、一ぷくぅ

20150627_kitachitose_226jg

状況は終了しましたが、残弾処理で空砲を撃ちます。

20150627_kitachitose_227jg

まだ、何発か撃って、撤収作業に入りました。

20150627_kitachitose_228jg

戦車退場

20150627_kitachitose_229jg

MRLSも続きます。

20150627_kitachitose_230jg

どこかに隠れていた戦車回収車も撤収です。

20150627_kitachitose_231jg

榴弾砲もカバーをして・・ 最後に撤収していきました。

20150627_kitachitose_232jg

撤収した戦車は、戦車駐車場へ バック、オーライ いや、うしろよし

20150627_kitachitose_233jg

残った煙幕も残弾処理で燃やしちゃいます。

20150627_kitachitose_234jg

弾薬輸送車も森の中を撤収中

20150627_kitachitose_235jg

各部隊の駐車場を見ながら、小生も撤収です。

20150627_kitachitose_236jg

展示会場では、恒例の試乗会。

20150627_kitachitose_237jg

戦車も驀進中

20150627_kitachitose_238jg

装備品展示場の観測レーダー でかぁ

20150627_kitachitose_239jg

ホークミサイル

20150627_kitachitose_240jg

偵察警戒車のおしり

20150627_kitachitose_241jg

MRLSのおしり

20150627_kitachitose_242jg

203mm榴弾砲のおしり おしりばかり見てちゃだめよ。

20150627_kitachitose_243jg

駐車場で雪上車発見 78式雪上車かな

20150627_kitachitose_244jg

記念式典等が終わっても、隊員さんは大変。入念に洗車です。ご苦労様。

20150627_kitachitose_245jg

熊が爆弾だいていたら・・・ こわいぃ

20150627_kitachitose_246jg

これにて第1特科団の記念行事を離脱。帰りは、送迎バスを利用して千歳駅へ。旅は、まだまだ続く。

| | コメント (0) | トラックバック (0)

2015/07/03

第1特科団創隊・北千歳駐屯地開庁63周年記念行事その2 北千歳駐屯地 2015/6/27 sat

その1からつづき

いよいよ、観閲行進が始まります。

20150627_kitachitose_100jg

執行官が見守る中、合図旗が降りるのを待っています。

20150627_kitachitose_101jg

先頭は、第1特科団 1特団-本

20150627_kitachitose_102jg

つづく本部中隊 1特団-本

20150627_kitachitose_103jg

第301観測中隊からは、対砲レーダー装置 JTPS-P16 301観

20150627_kitachitose_104jg

第1地対艦ミサイル連隊 1地対艦-本

20150627_kitachitose_105jg

第1中隊から捜索レーダーと指揮統制装置 1地対艦-1

20150627_kitachitose_106jg

ミサイル発射機搭載車が2両つづく

20150627_kitachitose_107jg

1地対艦-2

20150627_kitachitose_108jg

第2地対艦ミサイル連隊(美唄) 2地対艦-本

20150627_kitachitose_109jg

2地対艦-4

20150627_kitachitose_110jg

第3地対艦ミサイル連隊(上富良野) 3地対艦-本

20150627_kitachitose_111jg

第1特科群 1特群-本

20150627_kitachitose_112jg

第101特科大隊(美幌) 101特-本

20150627_kitachitose_113jg

203mm自走榴弾砲 101特-1

20150627_kitachitose_114jg

101特-2

20150627_kitachitose_115jg

87式砲側弾薬車 101特-3

20150627_kitachitose_116jg

同種特科がつづく 102特-3

20150627_kitachitose_117jg

129特-本

20150627_kitachitose_118jg

129特-1

20150627_kitachitose_119jg

129特-3 こちらは、多連装ロケットシステム自走発射機

20150627_kitachitose_120jg

第1特科群第133特科大隊(真駒内)

20150627_kitachitose_121jg

133特-3

20150627_kitachitose_122jg

ここからは、第4特科群(上富良野)

20150627_kitachitose_123jg

4特群-本

20150627_kitachitose_124jg

第4特科群第104特科大隊 104特-本

20150627_kitachitose_125jg

104特-1

20150627_kitachitose_126jg

104特-3

20150627_kitachitose_127jg

120特-本

20150627_kitachitose_128jg

120特-1

20150627_kitachitose_129jg

来賓で招待されている部隊所在の首長さんも、地元部隊の行進に熱心に声援を送っていた。

20150627_kitachitose_130jg

120特-3

20150627_kitachitose_131jg

131特-本

20150627_kitachitose_132jg

第4特科群第131特科大隊 131特-1

20150627_kitachitose_133jg

131特-3 失礼ながら、ここまでくると多少満腹ギミ

20150627_kitachitose_134jg

第1高射特科団第1高射特科群第302高射中隊

20150627_kitachitose_135jg

地対空誘導弾改良ホークⅢ型 1高群302

20150627_kitachitose_136jg

ここから支援部隊 第101特科直接支援大隊 101特直支-本

20150627_kitachitose_137jg

重レッカ 101特直支-整

20150627_kitachitose_138jg

第1直接支援中隊 101特直支-1

20150627_kitachitose_139jg

101特直支-3

20150627_kitachitose_140jg

第7後方支援連隊第2整備大隊第1戦車直接支援中隊 7後支-2整-1戦 ながぁ

20150627_kitachitose_141jg

第71戦車連隊 90式戦車

20150627_kitachitose_142jg

92式地雷原処理車も戦車連隊が持っているのね 71戦-本

20150627_kitachitose_143jg

71戦-1

20150627_kitachitose_144jg

71戦-3

20150627_kitachitose_145jg

71戦-5 

戦車連隊で、観閲行進は終了。

次は、訓練展示へつづく・・・

| | コメント (0) | トラックバック (0)

2015/07/02

第1特科団創隊・北千歳駐屯地開庁63周年記念行事その1 北千歳駐屯地 2015/6/27 sat

新千歳空港で英気を回復した後は・・・ 戦車づいてます。

20150627_kitachitose_000nck

新千歳空港から千歳まで、JRで移動です。 2739M サハ733-3102

20150627_kitachitose_001kc

千歳駅から徒歩で、20分。着いたのは陸上自衛隊北千歳駐屯地。

20150627_kitachitose_002kc

先月、東千歳に出向いたばかりですが・・ ここは、北の野戦特科・・つまり、砲兵部隊であります。

20150627_kitachitose_003f

始業は8時15分 国旗掲揚にあずかりました。

20150627_kitachitose_004j1ab

9時開門。特科団本部前に火砲展示場。

20150627_kitachitose_005j1ab

67式30型ロケットごしに特科団本部庁舎。

20150627_kitachitose_006j1ab

メインストリートには、各隊の標識が並ぶ。

20150627_kitachitose_007jj

出店の前を集合場所へ・・ ノンビリ

20150627_kitachitose_008mlrs

各隊には、いろいろな士気高揚の記念碑? 魂なのである。

20150627_kitachitose_009mlrs

先は第129特科大隊で多連装ロケットシステムの部隊。よく北朝鮮の映像に出てくるね。

20150627_kitachitose_010chihon

札幌地方協力本部のマスコットは、メイ?羊ちゃんです。

20150627_kitachitose_011j71tk

74式戦車と61式戦車

20150627_kitachitose_012j71tk

第7師団隷下第71戦車連隊が所在します。

20150627_kitachitose_013tk

見よ!

20150627_kitachitose_014ssmr

最近俄かに注目されている、地対艦ミサイル

20150627_kitachitose_015ssmr

特科団には3つの地対艦ミサイル連隊が所属し、ここには第1連隊が所在。

20150627_kitachitose_016jj

さすが連隊、5中隊編成です。式次第について旗手リハーサル中。

20150627_kitachitose_017j90tk

装備品展示場には、90式戦車

20150627_kitachitose_018mrls

多連装ロケットシステム自走発射機

20150627_kitachitose_019j203sh

203mm自走榴弾砲

20150627_kitachitose_020jg

さらに歩いて、途中71戦の駐車場をとおり

20150627_kitachitose_021jg

戦車駐車場です。今日はメインではないので、ほとんどがお休み。

20150627_kitachitose_022jg

式展会場のグランド、とうちゃーく。

20150627_kitachitose_023jg

陣取って、ほどなく入場が始まった。

20150627_kitachitose_024jg

連隊旗等は車両で入場。

20150627_kitachitose_025jg

小生の直前は、第71戦車連隊。

20150627_kitachitose_026jg

黄色い旗が・・・ 

20150627_kitachitose_027jg

黄・黄・黄・・・ ここだけでしょうね。

20150627_kitachitose_028jg

執行官登壇

20150627_kitachitose_029jg

国旗が入場して、観閲が始まります。

20150627_kitachitose_030jg

中隊旗手は、見せどこですよ。

20150627_kitachitose_031jg

観閲行進の隊形へ移れ・・・

20150627_kitachitose_032jg

観閲行進準備中に主要装備品紹介。90式戦車から・・

20150627_kitachitose_033jg

多連装ロケットシステム自走発射機

20150627_kitachitose_034jg

203mm自走榴弾砲

20150627_kitachitose_035jg

88式地対艦誘導弾ミサイル発射機

20150627_kitachitose_036jg

ド・ド・ドと 退場

20150627_kitachitose_037jg

さーて、観閲行進が始まります。最初は、散水車??? 

砂塵防止に水を蒔いてから開始です。観閲行進は続編へつづく・・・

| | コメント (0) | トラックバック (0)

2015/07/01

定点 富山空港 2015/7/1 wed

気がつけば文月。今日は梅雨らしい雨模様。河原も増水中。

RJNT 010108Z 35008KT 6000 SHRA SCT003 BKN005 BKN050 20/19 Q0989 RMK 3ST003 5ST005 7CU050 A2922

20150701_rjnt_00ja54an

20150701_rjnt_01ja54an

ANA313 RJTT-RJNT JA54AN B737-881

20150701_rjnt_02b2296

20150701_rjnt_03b2296

CSN613 ZYTL-RJNT B-2296 A319-132

20150701_rjnt_04terminal

空港ビルでは七夕飾り

20150701_rjnt_05ja02kg

さすがにドクターヘリもお休みです。

20150701_rjnt_06ja54an

ANA1181 RJNT-RJCC JA54AN B737-881

20150701_rjnt_07b2296

CSN614 RJNT-ZYTL B-2296 A319-132

RJNT 010300Z VRB02KT 3000 SHRA BR SCT003 BKN005 BKN040 20/20 Q0990

20150701_rjnt_08ja71an

20150701_rjnt_09ja71an

ANA315 RJTT-RJNT JA71AN B737-881

20150701_rjnt_10ja71an

20150701_rjnt_11ja71an

ANA316 RJNT-RJTT JA71AN B737-881

続きを読む "定点 富山空港 2015/7/1 wed"

| | コメント (0) | トラックバック (0)

« 2015年6月 | トップページ | 2015年8月 »